createdAt,value
2023-02-15T00:00:59.644Z,25.0
2023-02-15T00:06:05.853Z,26.0
2023-02-15T00:11:12.058Z,24.0
2023-02-15T00:16:18.301Z,23.0
2023-02-15T00:21:24.459Z,24.0
2023-02-15T00:26:30.690Z,26.0
2023-02-15T00:31:36.922Z,25.0
2023-02-15T00:36:43.090Z,25.0
2023-02-15T00:41:49.308Z,27.0
2023-02-15T00:46:55.502Z,29.0
2023-02-15T00:52:01.712Z,26.0
2023-02-15T00:57:07.922Z,27.0
2023-02-15T01:02:14.139Z,26.0
2023-02-15T01:07:20.343Z,26.0
2023-02-15T01:12:26.540Z,25.0
2023-02-15T01:17:32.757Z,27.5
2023-02-15T01:32:51.382Z,27.0
2023-02-15T01:37:57.585Z,26.0
2023-02-15T01:43:03.795Z,25.0
2023-02-15T01:48:10.003Z,24.0
2023-02-15T01:58:22.412Z,23.0
2023-02-15T02:03:27.652Z,24.0
2023-02-15T02:08:39.983Z,26.0
2023-02-15T02:13:45.212Z,26.0
2023-02-15T02:18:57.549Z,26.0
2023-02-15T02:24:09.865Z,24.0
2023-02-15T02:29:22.197Z,25.0
2023-02-15T02:34:34.509Z,25.5
2023-02-15T02:39:46.837Z,27.0
2023-02-15T02:44:58.193Z,24.0
2023-02-15T02:50:04.393Z,25.0
2023-02-15T02:55:09.632Z,26.0
2023-02-15T03:00:15.858Z,26.0
2023-02-15T03:05:21.072Z,27.0
2023-02-15T03:10:27.281Z,26.0
2023-02-15T03:15:33.492Z,26.0
2023-02-15T03:20:39.712Z,25.5
2023-02-15T03:25:45.918Z,26.0
2023-02-15T03:30:52.134Z,24.0
2023-02-15T03:35:58.356Z,26.5
2023-02-15T03:41:04.562Z,25.0
2023-02-15T03:46:10.831Z,23.0
2023-02-15T03:51:16.975Z,22.0
2023-02-15T03:56:23.167Z,23.0
2023-02-15T04:01:29.432Z,22.0
2023-02-15T04:06:35.576Z,24.0
2023-02-15T04:11:41.796Z,23.0
2023-02-15T04:16:47.124Z,23.0
2023-02-15T04:21:53.222Z,25.0
2023-02-15T04:26:59.459Z,25.0
2023-02-15T04:32:05.682Z,26.5
2023-02-15T04:37:11.838Z,25.5
2023-02-15T04:42:18.063Z,26.0
2023-02-15T04:47:24.287Z,24.0
2023-02-15T04:52:29.499Z,25.0
2023-02-15T04:57:35.710Z,27.0
2023-02-15T05:02:40.946Z,27.0
2023-02-15T05:07:47.154Z,28.0
2023-02-15T05:12:53.356Z,28.0
2023-02-15T05:17:59.575Z,27.0
2023-02-15T05:23:05.780Z,28.0
2023-02-15T05:28:12.006Z,30.0
2023-02-15T05:33:18.202Z,31.0
2023-02-15T05:38:24.416Z,31.0
2023-02-15T05:43:30.620Z,30.0
2023-02-15T05:48:36.837Z,31.5
2023-02-15T05:53:43.056Z,30.0
2023-02-15T05:58:49.268Z,33.0
2023-02-15T06:03:55.541Z,30.0
2023-02-15T06:09:01.689Z,32.0
2023-02-15T06:14:07.890Z,31.0
2023-02-15T06:19:14.106Z,34.0
2023-02-15T06:24:20.318Z,31.0
2023-02-15T06:29:26.512Z,30.0
2023-02-15T06:34:32.734Z,30.0
2023-02-15T06:39:38.928Z,32.0
2023-02-15T06:44:45.142Z,33.0
2023-02-15T06:49:50.368Z,33.0
2023-02-15T06:54:56.604Z,32.0
2023-02-15T07:00:02.784Z,33.0
2023-02-15T07:05:09.068Z,35.0
2023-02-15T07:10:15.204Z,34.0
2023-02-15T07:15:21.400Z,36.0
2023-02-15T07:20:27.683Z,37.0
2023-02-15T07:25:33.815Z,36.0
2023-02-15T07:30:40.059Z,38.0
2023-02-15T07:35:46.227Z,40.0
2023-02-15T07:40:52.499Z,41.0
2023-02-15T07:45:58.646Z,42.0
2023-02-15T07:51:04.855Z,43.0
2023-02-15T07:56:11.065Z,43.0
2023-02-15T08:01:17.266Z,40.0
2023-02-15T08:06:23.469Z,42.5
2023-02-15T08:11:29.672Z,44.5
2023-02-15T08:16:35.950Z,43.0
2023-02-15T08:21:42.104Z,43.0
2023-02-15T08:26:48.319Z,42.5
2023-02-15T08:31:54.683Z,42.0
2023-02-15T08:36:59.749Z,46.5
2023-02-15T08:42:06.099Z,44.0
2023-02-15T08:47:11.200Z,47.0
2023-02-15T08:57:23.598Z,47.0
2023-02-15T09:02:28.892Z,49.0
2023-02-15T09:07:35.107Z,46.0
2023-02-15T09:12:41.256Z,47.0
2023-02-15T09:17:47.461Z,45.5
2023-02-15T09:22:56.417Z,47.0
2023-02-15T09:27:59.873Z,43.0
2023-02-15T09:33:06.080Z,44.0
2023-02-15T09:38:12.286Z,42.0
2023-02-15T09:43:18.495Z,43.5
2023-02-15T09:48:24.699Z,42.0
2023-02-15T09:53:30.914Z,40.0
2023-02-15T09:58:37.113Z,41.0
2023-02-15T10:03:43.398Z,40.0
2023-02-15T10:08:49.530Z,38.0
2023-02-15T10:13:55.741Z,38.5
2023-02-15T10:19:02.019Z,34.0
2023-02-15T10:24:08.169Z,33.0
2023-02-15T10:29:14.370Z,35.0
2023-02-15T10:34:20.577Z,32.0
2023-02-15T10:39:26.798Z,32.0
2023-02-15T10:44:32.994Z,31.0
2023-02-15T10:49:38.224Z,31.0
2023-02-15T10:54:44.436Z,31.0
2023-02-15T10:59:50.634Z,29.0
2023-02-15T11:04:56.903Z,28.0
2023-02-15T11:10:03.059Z,27.0
2023-02-15T11:15:09.269Z,29.0
2023-02-15T11:20:15.468Z,26.0
2023-02-15T11:25:21.675Z,26.0
2023-02-15T11:30:27.955Z,28.0
2023-02-15T11:35:34.095Z,27.0
2023-02-15T11:40:40.293Z,27.0
2023-02-15T11:45:46.501Z,27.0
2023-02-15T11:50:52.712Z,28.0
2023-02-15T11:55:58.933Z,27.0
2023-02-15T12:01:05.381Z,28.0
2023-02-15T12:06:11.352Z,27.0
2023-02-15T12:11:17.560Z,27.5
2023-02-15T12:16:23.833Z,26.0
2023-02-15T12:21:29.957Z,31.0
2023-02-15T12:26:36.173Z,26.5
2023-02-15T12:31:42.553Z,26.0
2023-02-15T12:36:47.628Z,27.0
2023-02-15T12:41:53.847Z,26.0
2023-02-15T12:47:00.168Z,26.0
2023-02-15T12:52:06.280Z,25.0
2023-02-15T12:57:12.497Z,26.0
2023-02-15T13:02:18.725Z,26.0
2023-02-15T13:07:24.933Z,26.0
2023-02-15T13:12:31.143Z,26.0
2023-02-15T13:17:37.351Z,25.5
2023-02-15T13:22:43.562Z,26.0
2023-02-15T13:27:49.763Z,26.5
2023-02-15T13:32:55.976Z,27.0
2023-02-15T13:38:02.194Z,27.0
2023-02-15T13:43:08.394Z,28.0
2023-02-15T13:48:14.604Z,27.0
2023-02-15T13:53:20.819Z,26.0
2023-02-15T13:58:27.035Z,25.0
2023-02-15T14:03:33.228Z,24.0
2023-02-15T14:08:39.469Z,25.0
2023-02-15T14:13:45.643Z,24.0
2023-02-15T14:18:51.846Z,26.0
2023-02-15T14:23:57.095Z,28.0
2023-02-15T14:29:03.278Z,26.0
2023-02-15T14:34:09.492Z,27.0
2023-02-15T14:39:15.700Z,27.0
2023-02-15T14:44:21.900Z,27.0
2023-02-15T14:54:34.383Z,29.0
2023-02-15T14:59:40.544Z,28.5
2023-02-15T15:09:53.017Z,27.0
2023-02-15T15:14:59.209Z,25.5
2023-02-15T15:20:05.417Z,28.0
2023-02-15T15:25:11.651Z,30.0
2023-02-15T15:30:16.929Z,31.0
2023-02-15T15:35:29.154Z,28.0
2023-02-15T15:40:40.506Z,29.0
2023-02-15T15:45:46.713Z,27.0
2023-02-15T15:50:51.968Z,27.0
2023-02-15T15:56:04.612Z,27.0
2023-02-15T16:01:16.708Z,27.0
2023-02-15T16:06:28.956Z,26.0
2023-02-15T16:11:41.285Z,26.0
2023-02-15T16:16:53.609Z,27.0
2023-02-15T16:22:04.973Z,27.0
2023-02-15T16:27:11.188Z,27.0
2023-02-15T16:32:17.392Z,27.0
2023-02-15T16:37:23.614Z,27.5
2023-02-15T16:42:29.823Z,28.0
2023-02-15T16:47:36.073Z,28.0
2023-02-15T16:52:42.246Z,27.0
2023-02-15T16:57:48.447Z,29.0
2023-02-15T17:02:56.581Z,28.0
2023-02-15T17:08:00.864Z,28.0
2023-02-15T17:13:07.072Z,27.0
2023-02-15T17:18:13.302Z,30.0
2023-02-15T17:23:19.496Z,28.5
2023-02-15T17:28:25.873Z,33.0
2023-02-15T17:33:32.389Z,29.0
2023-02-15T17:38:38.126Z,29.0
2023-02-15T17:43:44.344Z,34.0
2023-02-15T17:48:50.537Z,32.0
2023-02-15T17:53:56.773Z,31.0
2023-02-15T17:59:02.956Z,33.0
2023-02-15T18:04:09.256Z,30.0
2023-02-15T18:09:14.404Z,28.0
2023-02-15T18:14:20.614Z,30.5
2023-02-15T18:19:26.830Z,29.0
2023-02-15T18:24:33.041Z,28.0
2023-02-15T18:29:39.254Z,30.0
2023-02-15T18:34:45.465Z,29.0
2023-02-15T18:39:51.649Z,31.0
2023-02-15T18:44:57.857Z,29.0
2023-02-15T18:50:04.052Z,30.5
2023-02-15T18:55:10.260Z,30.0
2023-02-15T19:00:16.486Z,32.0
2023-02-15T19:05:22.676Z,30.0
2023-02-15T19:10:28.912Z,34.0
2023-02-15T19:15:35.160Z,34.0
2023-02-15T19:20:41.332Z,32.0
2023-02-15T19:25:47.517Z,33.0
2023-02-15T19:30:53.749Z,33.0
2023-02-15T19:35:59.948Z,33.5
2023-02-15T19:41:06.160Z,33.0
2023-02-15T19:46:12.402Z,35.0
2023-02-15T19:51:18.585Z,34.0
2023-02-15T19:56:23.790Z,33.0
2023-02-15T20:01:30.017Z,35.5
2023-02-15T20:06:35.230Z,36.0
2023-02-15T20:11:41.436Z,38.0
2023-02-15T20:16:46.683Z,36.0
2023-02-15T20:21:52.885Z,36.0
2023-02-15T20:26:59.094Z,38.0
2023-02-15T20:32:05.492Z,35.5
2023-02-15T20:37:11.506Z,37.0
2023-02-15T20:42:17.719Z,36.0
2023-02-15T20:47:26.161Z,35.0
2023-02-15T20:52:30.131Z,39.0
2023-02-15T20:57:36.366Z,40.0
2023-02-15T21:02:42.550Z,39.0
2023-02-15T21:07:48.753Z,38.0
2023-02-15T21:12:54.970Z,41.0
2023-02-15T21:18:01.182Z,38.0
2023-02-15T21:23:06.395Z,39.0
2023-02-15T21:28:12.617Z,40.5
2023-02-15T21:33:18.817Z,39.0
2023-02-15T21:38:25.026Z,39.0
2023-02-15T21:43:31.227Z,39.0
2023-02-15T21:48:37.449Z,42.5
2023-02-15T21:53:43.648Z,39.0
2023-02-15T21:58:49.849Z,38.0
2023-02-15T22:03:56.111Z,40.5
2023-02-15T22:09:01.316Z,38.0
2023-02-15T22:14:07.529Z,39.0
2023-02-15T22:19:12.739Z,40.0
2023-02-15T22:24:18.943Z,38.0
2023-02-15T22:29:25.158Z,38.5
2023-02-15T22:34:31.414Z,39.0
2023-02-15T22:39:37.562Z,41.5
2023-02-15T22:44:43.775Z,39.0
2023-02-15T22:49:49.990Z,40.0
2023-02-15T22:54:56.187Z,38.5
2023-02-15T23:00:02.485Z,41.0
2023-02-15T23:05:08.656Z,40.0
2023-02-15T23:10:14.813Z,38.0
2023-02-15T23:15:21.029Z,40.0
2023-02-15T23:20:27.231Z,39.0
2023-02-15T23:25:33.435Z,39.0
2023-02-15T23:30:39.642Z,41.0
2023-02-15T23:35:45.857Z,40.0
2023-02-15T23:40:52.052Z,41.0
2023-02-15T23:45:58.289Z,40.0
2023-02-15T23:51:04.792Z,42.0
2023-02-15T23:56:10.683Z,42.5
